St Solene — FVDG — position and weather

sailwx.info

Track history (hours):
 
Tides and Currents Weather Stations Pressure Air Temp Water Temp Dewpoint Dewpoint Depression Visibility Wind Speed Wind Dir Waves Ship Positions

St Solene

Last reported at 2014-Dec-21 15:13 UTC. Time now 2014-Dec-22 07:04 UTC.
Position N 42°53' E 005°36'.

Length 104 m; draft 5.8 m.

Type: Tanker. MMSI: 226302000.

Date/timePositionNaut miles runAvg speedWind from/ knotsBaromVisibWave heightAir tempDewpointWater temp
2014-Dec-21 15:13N 42°53' E 005°36'3710.0
2014-Dec-21 11:32N 43°18' E 004°59'9 8.9
2014-Dec-21 10:33N 43°25' E 004°53'1 0.1
2014-Dec-21 06:22N 43°26' E 004°54'0 0.0
2014-Dec-21 05:04N 43°26' E 004°54'0 0.0
2014-Dec-21 01:13N 43°26' E 004°54'0 0.0
2014-Dec-20 23:22N 43°26' E 004°54'0 0.0
2014-Dec-20 21:13N 43°26' E 004°54'0 0.0
2014-Dec-20 20:16N 43°26' E 004°54'0 0.0
2014-Dec-20 18:33N 43°26' E 004°54'2 1.8
2014-Dec-20 17:22N 43°25' E 004°56'0 0.0
2014-Dec-20 16:31N 43°25' E 004°56'0 0.0
2014-Dec-20 15:31N 43°25' E 004°56'0 0.0
2014-Dec-20 14:31N 43°25' E 004°56'0 0.0
2014-Dec-20 13:31N 43°25' E 004°56'0 0.0
2014-Dec-20 12:31N 43°25' E 004°56'0 0.0
2014-Dec-20 11:31N 43°25' E 004°56'0 0.0
2014-Dec-20 10:31N 43°25' E 004°56'0 0.0
2014-Dec-20 09:31N 43°25' E 004°56'0 0.0
2014-Dec-20 08:31N 43°25' E 004°56'0 0.0
2014-Dec-20 07:31N 43°25' E 004°56'0 0.0
2014-Dec-20 06:31N 43°25' E 004°56'0 0.0
2014-Dec-20 05:31N 43°25' E 004°56'0 0.0
2014-Dec-20 04:28N 43°25' E 004°56'0 0.0
2014-Dec-20 03:28N 43°25' E 004°56'0 0.0
2014-Dec-20 02:28N 43°25' E 004°56'0 0.0
2014-Dec-20 01:31N 43°25' E 004°56'0 0.0
2014-Dec-20 00:31N 43°25' E 004°56'0 0.0
2014-Dec-19 23:31N 43°25' E 004°56'0 0.0
2014-Dec-19 22:31N 43°25' E 004°56'0 0.0
2014-Dec-19 21:31N 43°25' E 004°56'0 0.0
2014-Dec-19 20:31N 43°25' E 004°56'0 0.0
2014-Dec-19 19:31N 43°25' E 004°56'0 0.0
2014-Dec-19 18:28N 43°25' E 004°56'0 0.0
2014-Dec-19 17:28N 43°25' E 004°56'0 0.0
2014-Dec-19 16:31N 43°25' E 004°56'0 0.0
2014-Dec-19 15:31N 43°25' E 004°56'0 0.0
2014-Dec-19 14:31N 43°25' E 004°56'0 0.0
2014-Dec-19 13:31N 43°25' E 004°56'0 0.0
2014-Dec-19 12:31N 43°25' E 004°56'0 0.0
2014-Dec-19 11:31N 43°25' E 004°56'0 0.0
2014-Dec-19 10:31N 43°25' E 004°56'0 0.0
2014-Dec-19 09:31N 43°25' E 004°56'0 0.0
2014-Dec-19 08:31N 43°25' E 004°56'0 0.0
2014-Dec-19 07:31N 43°25' E 004°56'0 0.0
2014-Dec-19 06:31N 43°25' E 004°56'0 0.0
2014-Dec-19 05:31N 43°25' E 004°56'0 0.0
2014-Dec-19 04:31N 43°25' E 004°56'0 0.0
2014-Dec-19 03:31N 43°25' E 004°56'0 0.0
2014-Dec-19 02:31N 43°25' E 004°56'0 0.0
2014-Dec-19 01:31N 43°25' E 004°56'0 0.0
2014-Dec-19 00:31N 43°25' E 004°56'0 0.0
2014-Dec-18 23:31N 43°25' E 004°56'0 0.0
2014-Dec-18 22:31N 43°25' E 004°56'0 0.0
2014-Dec-18 21:31N 43°25' E 004°56'0 0.0
2014-Dec-18 20:31N 43°25' E 004°56'0 0.0
2014-Dec-18 19:31N 43°25' E 004°56'0 0.0
2014-Dec-18 18:33N 43°25' E 004°56'0 0.0
2014-Dec-18 17:33N 43°25' E 004°56'0 0.0
2014-Dec-18 16:33N 43°25' E 004°56'3 3.3
2014-Dec-18 15:33N 43°22' E 004°59'8 8.3
2014-Dec-18 14:33N 43°14' E 005°02'1110.5
2014-Dec-18 13:28N 43°09' E 004°47'1312.8
2014-Dec-18 12:26N 43°07' E 004°29'1312.8
2014-Dec-18 11:24N 43°05' E 004°11'1613.0
2014-Dec-18 10:11N 43°02' E 003°50'812.8
2014-Dec-18 09:31N 43°01' E 003°39'1312.9
2014-Dec-18 08:30N 42°59' E 003°21'1311.2
2014-Dec-18 07:21N 43°01' E 003°03'0 0.1
2014-Dec-18 06:31N 43°01' E 003°04'0 0.0
2014-Dec-18 03:10N 43°01' E 003°04'0 0.0
2014-Dec-18 02:14N 43°01' E 003°04'0 0.0
2014-Dec-18 01:30N 43°01' E 003°04'0 0.0
2014-Dec-18 00:09N 43°01' E 003°04'0 0.0
2014-Dec-17 23:23N 43°01' E 003°04'0 0.0
2014-Dec-17 21:17N 43°01' E 003°04'0 0.0
2014-Dec-17 17:14N 43°01' E 003°04'0 0.0
2014-Dec-17 16:22N 43°01' E 003°04'0 0.0
2014-Dec-17 15:17N 43°01' E 003°04'3 1.6
2014-Dec-17 13:24N 43°00' E 003°07'9 8.3
2014-Dec-17 12:18N 42°59' E 003°20'1211.9
2014-Dec-17 11:20N 43°01' E 003°35'1411.2
2014-Dec-17 10:05N 43°02' E 003°54'611.5
2014-Dec-17 09:32N 43°03' E 004°03'1010.5
2014-Dec-17 08:33N 43°05' E 004°17'1512.0
2014-Dec-17 07:18N 43°07' E 004°37'911.5
2014-Dec-17 06:28N 43°09' E 004°50'9 9.7
2014-Dec-17 05:32N 43°13' E 005°01'1110.7
2014-Dec-17 04:33N 43°24' E 004°59'0 0.3
2014-Dec-17 03:31N 43°24' E 004°60'0 0.0
2014-Dec-17 02:31N 43°24' E 004°60'0 0.0
2014-Dec-17 01:31N 43°24' E 004°60'0 0.0
2014-Dec-17 00:31N 43°24' E 004°60'0 0.0
2014-Dec-16 23:31N 43°24' E 004°60'0 0.0
2014-Dec-16 22:31N 43°24' E 004°60'0 0.0
2014-Dec-16 21:31N 43°24' E 004°60'0 0.0
2014-Dec-16 20:28N 43°24' E 004°60'0 0.0
2014-Dec-16 19:31N 43°24' E 004°60'0 0.0
2014-Dec-16 18:31N 43°24' E 004°60'0 0.1
2014-Dec-16 17:31N 43°24' E 004°60'0 0.0
2014-Dec-16 16:31N 43°24' E 004°60'0 0.0
2014-Dec-16 15:31N 43°24' E 004°60'0 0.0
2014-Dec-16 14:31N 43°24' E 004°60'0 0.0
2014-Dec-16 13:31N 43°24' E 004°60'0 0.0
2014-Dec-16 12:31N 43°24' E 004°60'0 0.0
2014-Dec-16 11:31N 43°24' E 004°60'0 0.0
2014-Dec-16 10:31N 43°24' E 004°60'0 0.0
2014-Dec-16 09:31N 43°24' E 004°60'0 0.0
2014-Dec-16 08:31N 43°24' E 004°60'0 0.0
2014-Dec-16 07:31N 43°24' E 004°60'0 0.0
2014-Dec-16 06:31N 43°24' E 004°60'0 0.0
2014-Dec-16 05:26N 43°24' E 004°60'0 0.0
2014-Dec-16 04:17N 43°24' E 004°60'0 0.0
2014-Dec-16 03:31N 43°24' E 004°60'0 0.0
2014-Dec-16 02:32N 43°24' E 004°60'0 0.0
2014-Dec-16 01:07N 43°24' E 004°60'0 0.0
2014-Dec-15 23:31N 43°24' E 004°60'0 0.0
2014-Dec-15 22:31N 43°24' E 004°60'0 0.0
2014-Dec-15 21:31N 43°24' E 004°60'0 0.0
2014-Dec-15 20:31N 43°24' E 004°60'0 0.0
2014-Dec-15 19:31N 43°24' E 004°60'0 0.0
2014-Dec-15 18:31N 43°24' E 004°60'0 0.0
2014-Dec-15 17:31N 43°24' E 004°60'0 0.0
2014-Dec-15 16:31N 43°24' E 004°60'0 0.0
2014-Dec-15 15:28N 43°24' E 004°60'0 0.0
2014-Dec-15 14:31N 43°24' E 004°60'0 0.0
2014-Dec-15 13:31N 43°24' E 004°60'0 0.0
2014-Dec-15 12:32N 43°24' E 004°60'0 0.0
2014-Dec-15 11:31N 43°24' E 004°60'0 0.0
2014-Dec-15 10:31N 43°24' E 004°60'0 0.0
2014-Dec-15 09:31N 43°24' E 004°60'0 0.0
2014-Dec-15 08:31N 43°24' E 004°60'0 0.0
2014-Dec-15 07:31N 43°24' E 004°60'0 0.0
2014-Dec-15 06:31N 43°24' E 004°60'0 0.0
2014-Dec-15 05:31N 43°24' E 004°60'0 0.0
2014-Dec-15 04:31N 43°24' E 004°60'0 0.0
2014-Dec-15 03:31N 43°24' E 004°60'0 0.0
2014-Dec-15 02:28N 43°24' E 004°60'0 0.0
2014-Dec-15 01:31N 43°24' E 004°60'0 0.0
2014-Dec-15 00:31N 43°24' E 004°60'0 0.0
2014-Dec-14 23:31N 43°24' E 004°60'0 0.0
2014-Dec-14 22:31N 43°24' E 004°60'0 0.0
2014-Dec-14 21:31N 43°24' E 004°60'0 0.0
2014-Dec-14 20:31N 43°24' E 004°60'1 1.2
2014-Dec-14 19:33N 43°24' E 004°58'0 0.0
2014-Dec-14 18:33N 43°24' E 004°58'0 0.0
2014-Dec-14 17:33N 43°24' E 004°58'0 0.0
2014-Dec-14 16:33N 43°24' E 004°58'0 0.0
2014-Dec-14 15:34N 43°24' E 004°58'0 0.0
2014-Dec-14 14:33N 43°24' E 004°58'0 0.0
2014-Dec-14 13:33N 43°24' E 004°58'0 0.0
2014-Dec-14 12:33N 43°24' E 004°58'0 0.0
2014-Dec-14 11:33N 43°24' E 004°58'0 0.0
2014-Dec-14 10:33N 43°24' E 004°58'0 0.0
2014-Dec-14 09:33N 43°24' E 004°58'0 0.0
2014-Dec-14 08:33N 43°24' E 004°58'0 0.1
2014-Dec-14 07:33N 43°24' E 004°58'7 7.0
2014-Dec-14 06:33N 43°17' E 005°00'3410.0
2014-Dec-14 03:07N 42°57' E 005°39'710.9
2014-Dec-14 02:30N 42°53' E 005°47'  
Track history (hours):
 
Tides and Currents Weather Stations Pressure Air Temp Water Temp Dewpoint Dewpoint Depression Visibility Wind Speed Wind Dir Waves Ship Positions

St Solene

Last reported at 2014-Dec-21 15:13 UTC. Time now 2014-Dec-22 07:04 UTC.
Position N 42°53' E 005°36'.

Length 104 m; draft 5.8 m.

Type: Tanker. MMSI: 226302000.

Date/timePositionNaut miles runAvg speedWind from/ knotsBaromVisibWave heightAir tempDewpointWater temp
2014-Dec-21 15:13N 42°53' E 005°36'3710.0
2014-Dec-21 11:32N 43°18' E 004°59'9 8.9
2014-Dec-21 10:33N 43°25' E 004°53'1 0.1
2014-Dec-21 06:22N 43°26' E 004°54'0 0.0
2014-Dec-21 05:04N 43°26' E 004°54'0 0.0
2014-Dec-21 01:13N 43°26' E 004°54'0 0.0
2014-Dec-20 23:22N 43°26' E 004°54'0 0.0
2014-Dec-20 21:13N 43°26' E 004°54'0 0.0
2014-Dec-20 20:16N 43°26' E 004°54'0 0.0
2014-Dec-20 18:33N 43°26' E 004°54'2 1.8
2014-Dec-20 17:22N 43°25' E 004°56'0 0.0
2014-Dec-20 16:31N 43°25' E 004°56'0 0.0
2014-Dec-20 15:31N 43°25' E 004°56'0 0.0
2014-Dec-20 14:31N 43°25' E 004°56'0 0.0
2014-Dec-20 13:31N 43°25' E 004°56'0 0.0
2014-Dec-20 12:31N 43°25' E 004°56'0 0.0
2014-Dec-20 11:31N 43°25' E 004°56'0 0.0
2014-Dec-20 10:31N 43°25' E 004°56'0 0.0
2014-Dec-20 09:31N 43°25' E 004°56'0 0.0
2014-Dec-20 08:31N 43°25' E 004°56'0 0.0
2014-Dec-20 07:31N 43°25' E 004°56'0 0.0
2014-Dec-20 06:31N 43°25' E 004°56'0 0.0
2014-Dec-20 05:31N 43°25' E 004°56'0 0.0
2014-Dec-20 04:28N 43°25' E 004°56'0 0.0
2014-Dec-20 03:28N 43°25' E 004°56'0 0.0
2014-Dec-20 02:28N 43°25' E 004°56'0 0.0
2014-Dec-20 01:31N 43°25' E 004°56'0 0.0
2014-Dec-20 00:31N 43°25' E 004°56'0 0.0
2014-Dec-19 23:31N 43°25' E 004°56'0 0.0
2014-Dec-19 22:31N 43°25' E 004°56'0 0.0
2014-Dec-19 21:31N 43°25' E 004°56'0 0.0
2014-Dec-19 20:31N 43°25' E 004°56'0 0.0
2014-Dec-19 19:31N 43°25' E 004°56'0 0.0
2014-Dec-19 18:28N 43°25' E 004°56'0 0.0
2014-Dec-19 17:28N 43°25' E 004°56'0 0.0
2014-Dec-19 16:31N 43°25' E 004°56'0 0.0
2014-Dec-19 15:31N 43°25' E 004°56'0 0.0
2014-Dec-19 14:31N 43°25' E 004°56'0 0.0
2014-Dec-19 13:31N 43°25' E 004°56'0 0.0
2014-Dec-19 12:31N 43°25' E 004°56'0 0.0
2014-Dec-19 11:31N 43°25' E 004°56'0 0.0
2014-Dec-19 10:31N 43°25' E 004°56'0 0.0
2014-Dec-19 09:31N 43°25' E 004°56'0 0.0
2014-Dec-19 08:31N 43°25' E 004°56'0 0.0
2014-Dec-19 07:31N 43°25' E 004°56'0 0.0
2014-Dec-19 06:31N 43°25' E 004°56'0 0.0
2014-Dec-19 05:31N 43°25' E 004°56'0 0.0
2014-Dec-19 04:31N 43°25' E 004°56'0 0.0
2014-Dec-19 03:31N 43°25' E 004°56'0 0.0
2014-Dec-19 02:31N 43°25' E 004°56'0 0.0
2014-Dec-19 01:31N 43°25' E 004°56'0 0.0
2014-Dec-19 00:31N 43°25' E 004°56'0 0.0
2014-Dec-18 23:31N 43°25' E 004°56'0 0.0
2014-Dec-18 22:31N 43°25' E 004°56'0 0.0
2014-Dec-18 21:31N 43°25' E 004°56'0 0.0
2014-Dec-18 20:31N 43°25' E 004°56'0 0.0
2014-Dec-18 19:31N 43°25' E 004°56'0 0.0
2014-Dec-18 18:33N 43°25' E 004°56'0 0.0
2014-Dec-18 17:33N 43°25' E 004°56'0 0.0
2014-Dec-18 16:33N 43°25' E 004°56'3 3.3
2014-Dec-18 15:33N 43°22' E 004°59'8 8.3
2014-Dec-18 14:33N 43°14' E 005°02'1110.5
2014-Dec-18 13:28N 43°09' E 004°47'1312.8
2014-Dec-18 12:26N 43°07' E 004°29'1312.8
2014-Dec-18 11:24N 43°05' E 004°11'1613.0
2014-Dec-18 10:11N 43°02' E 003°50'812.8
2014-Dec-18 09:31N 43°01' E 003°39'1312.9
2014-Dec-18 08:30N 42°59' E 003°21'1311.2
2014-Dec-18 07:21N 43°01' E 003°03'0 0.1
2014-Dec-18 06:31N 43°01' E 003°04'0 0.0
2014-Dec-18 03:10N 43°01' E 003°04'0 0.0
2014-Dec-18 02:14N 43°01' E 003°04'0 0.0
2014-Dec-18 01:30N 43°01' E 003°04'0 0.0
2014-Dec-18 00:09N 43°01' E 003°04'0 0.0
2014-Dec-17 23:23N 43°01' E 003°04'0 0.0
2014-Dec-17 21:17N 43°01' E 003°04'0 0.0
2014-Dec-17 17:14N 43°01' E 003°04'0 0.0
2014-Dec-17 16:22N 43°01' E 003°04'0 0.0
2014-Dec-17 15:17N 43°01' E 003°04'3 1.6
2014-Dec-17 13:24N 43°00' E 003°07'9 8.3
2014-Dec-17 12:18N 42°59' E 003°20'1211.9
2014-Dec-17 11:20N 43°01' E 003°35'1411.2
2014-Dec-17 10:05N 43°02' E 003°54'611.5
2014-Dec-17 09:32N 43°03' E 004°03'1010.5
2014-Dec-17 08:33N 43°05' E 004°17'1512.0
2014-Dec-17 07:18N 43°07' E 004°37'911.5
2014-Dec-17 06:28N 43°09' E 004°50'9 9.7
2014-Dec-17 05:32N 43°13' E 005°01'1110.7
2014-Dec-17 04:33N 43°24' E 004°59'0 0.3
2014-Dec-17 03:31N 43°24' E 004°60'0 0.0
2014-Dec-17 02:31N 43°24' E 004°60'0 0.0
2014-Dec-17 01:31N 43°24' E 004°60'0 0.0
2014-Dec-17 00:31N 43°24' E 004°60'0 0.0
2014-Dec-16 23:31N 43°24' E 004°60'0 0.0
2014-Dec-16 22:31N 43°24' E 004°60'0 0.0
2014-Dec-16 21:31N 43°24' E 004°60'0 0.0
2014-Dec-16 20:28N 43°24' E 004°60'0 0.0
2014-Dec-16 19:31N 43°24' E 004°60'0 0.0
2014-Dec-16 18:31N 43°24' E 004°60'0 0.1
2014-Dec-16 17:31N 43°24' E 004°60'0 0.0
2014-Dec-16 16:31N 43°24' E 004°60'0 0.0
2014-Dec-16 15:31N 43°24' E 004°60'0 0.0
2014-Dec-16 14:31N 43°24' E 004°60'0 0.0
2014-Dec-16 13:31N 43°24' E 004°60'0 0.0
2014-Dec-16 12:31N 43°24' E 004°60'0 0.0
2014-Dec-16 11:31N 43°24' E 004°60'0 0.0
2014-Dec-16 10:31N 43°24' E 004°60'0 0.0
2014-Dec-16 09:31N 43°24' E 004°60'0 0.0
2014-Dec-16 08:31N 43°24' E 004°60'0 0.0
2014-Dec-16 07:31N 43°24' E 004°60'0 0.0
2014-Dec-16 06:31N 43°24' E 004°60'0 0.0
2014-Dec-16 05:26N 43°24' E 004°60'0 0.0
2014-Dec-16 04:17N 43°24' E 004°60'0 0.0
2014-Dec-16 03:31N 43°24' E 004°60'0 0.0
2014-Dec-16 02:32N 43°24' E 004°60'0 0.0
2014-Dec-16 01:07N 43°24' E 004°60'0 0.0
2014-Dec-15 23:31N 43°24' E 004°60'0 0.0
2014-Dec-15 22:31N 43°24' E 004°60'0 0.0
2014-Dec-15 21:31N 43°24' E 004°60'0 0.0
2014-Dec-15 20:31N 43°24' E 004°60'0 0.0
2014-Dec-15 19:31N 43°24' E 004°60'0 0.0
2014-Dec-15 18:31N 43°24' E 004°60'0 0.0
2014-Dec-15 17:31N 43°24' E 004°60'0 0.0
2014-Dec-15 16:31N 43°24' E 004°60'0 0.0
2014-Dec-15 15:28N 43°24' E 004°60'0 0.0
2014-Dec-15 14:31N 43°24' E 004°60'0 0.0
2014-Dec-15 13:31N 43°24' E 004°60'0 0.0
2014-Dec-15 12:32N 43°24' E 004°60'0 0.0
2014-Dec-15 11:31N 43°24' E 004°60'0 0.0
2014-Dec-15 10:31N 43°24' E 004°60'0 0.0
2014-Dec-15 09:31N 43°24' E 004°60'0 0.0
2014-Dec-15 08:31N 43°24' E 004°60'0 0.0
2014-Dec-15 07:31N 43°24' E 004°60'0 0.0
2014-Dec-15 06:31N 43°24' E 004°60'0 0.0
2014-Dec-15 05:31N 43°24' E 004°60'0 0.0
2014-Dec-15 04:31N 43°24' E 004°60'0 0.0
2014-Dec-15 03:31N 43°24' E 004°60'0 0.0
2014-Dec-15 02:28N 43°24' E 004°60'0 0.0
2014-Dec-15 01:31N 43°24' E 004°60'0 0.0
2014-Dec-15 00:31N 43°24' E 004°60'0 0.0
2014-Dec-14 23:31N 43°24' E 004°60'0 0.0
2014-Dec-14 22:31N 43°24' E 004°60'0 0.0
2014-Dec-14 21:31N 43°24' E 004°60'0 0.0
2014-Dec-14 20:31N 43°24' E 004°60'1 1.2
2014-Dec-14 19:33N 43°24' E 004°58'0 0.0
2014-Dec-14 18:33N 43°24' E 004°58'0 0.0
2014-Dec-14 17:33N 43°24' E 004°58'0 0.0
2014-Dec-14 16:33N 43°24' E 004°58'0 0.0
2014-Dec-14 15:34N 43°24' E 004°58'0 0.0
2014-Dec-14 14:33N 43°24' E 004°58'0 0.0
2014-Dec-14 13:33N 43°24' E 004°58'0 0.0
2014-Dec-14 12:33N 43°24' E 004°58'0 0.0
2014-Dec-14 11:33N 43°24' E 004°58'0 0.0
2014-Dec-14 10:33N 43°24' E 004°58'0 0.0
2014-Dec-14 09:33N 43°24' E 004°58'0 0.0
2014-Dec-14 08:33N 43°24' E 004°58'0 0.1
2014-Dec-14 07:33N 43°24' E 004°58'7 7.0
2014-Dec-14 06:33N 43°17' E 005°00'3410.0
2014-Dec-14 03:07N 42°57' E 005°39'710.9
2014-Dec-14 02:30N 42°53' E 005°47'  

Dump ship's entire track history